Steele, Missouri
Current Conditions -  °F | °C
As of 2:53 AM on Tuesday 21 Oct 2014 (Local Time) from KHKA Reporting Station
Clear Clear  
Wind Chill: 11°   Ceiling: Unl
Heat Index: 11°   Visibility: 8mi
Dew Point: 11°   Wind: 5mph
Humidity: 97%   Direction: 330°NNW
Pressure: 30.03"   Gusts: NA
Location:  36.08°N, 89.83°W
Report Text: KHKA 210753Z AUTO 33004KT 8SM CLR 11/11 A3003 RMK AO2 SLP169 T01110106
Loading
Personal Weather Stations






























Interactive Weather Map
Tropical Storm Tracking
New forecast layout! Learn more

10-Day Weather Forecast

Advertisements
Track Severe Weather on mobile